createdAt,value
2023-04-15T00:01:24.261Z,7.00
2023-04-15T00:03:55.442Z,5.43
2023-04-15T00:06:22.863Z,8.63
2023-04-15T00:08:52.472Z,7.25
2023-04-15T00:11:20.314Z,12.57
2023-04-15T00:13:47.560Z,16.25
2023-04-15T00:16:14.836Z,8.50
2023-04-15T00:18:41.902Z,8.73
2023-04-15T00:21:09.723Z,13.52
2023-04-15T00:23:39.714Z,12.23
2023-04-15T00:26:10.061Z,9.80
2023-04-15T00:28:37.510Z,6.22
2023-04-15T00:31:04.565Z,6.93
2023-04-15T00:33:32.001Z,10.50
2023-04-15T00:36:00.561Z,11.38
2023-04-15T00:38:28.264Z,9.40
2023-04-15T00:40:56.571Z,14.18
2023-04-15T00:43:23.847Z,10.55
2023-04-15T00:45:53.841Z,12.80
2023-04-15T00:48:21.285Z,13.25
2023-04-15T00:50:52.115Z,9.73
2023-04-15T00:53:19.243Z,7.70
2023-04-15T00:55:46.346Z,9.23
2023-04-15T00:58:13.348Z,12.80
2023-04-15T01:00:43.557Z,10.98
2023-04-15T01:03:12.030Z,6.30
2023-04-15T01:05:39.468Z,7.40
2023-04-15T01:08:09.909Z,148.27
2023-04-15T01:10:38.026Z,99.50
2023-04-15T01:13:05.301Z,26.38
2023-04-15T01:15:33.586Z,33.67
2023-04-15T01:18:03.362Z,16.13
2023-04-15T01:20:34.685Z,11.25
2023-04-15T01:23:02.679Z,19.48
2023-04-15T01:25:34.485Z,17.20
2023-04-15T01:28:02.268Z,9.93
2023-04-15T01:30:30.137Z,11.40
2023-04-15T01:32:57.577Z,6.60
2023-04-15T01:35:25.109Z,7.22
2023-04-15T01:37:53.010Z,10.70
2023-04-15T01:40:20.802Z,12.52
2023-04-15T01:42:47.984Z,14.32
2023-04-15T01:45:15.749Z,8.43
2023-04-15T01:47:43.758Z,8.35
2023-04-15T01:50:11.384Z,9.57
2023-04-15T01:52:40.373Z,11.93
2023-04-15T01:55:08.670Z,8.32
2023-04-15T01:57:35.954Z,10.77
2023-04-15T02:00:04.869Z,10.05
2023-04-15T02:02:40.384Z,96.43
2023-04-15T02:05:11.159Z,17.02
2023-04-15T02:07:38.239Z,15.02
2023-04-15T02:10:05.677Z,46.30
2023-04-15T02:12:36.056Z,25.67
2023-04-15T02:15:03.104Z,64.80
2023-04-15T02:17:39.021Z,81.07
2023-04-15T02:20:08.818Z,40.83
2023-04-15T02:22:35.834Z,71.80
2023-04-15T02:25:02.834Z,195.35
2023-04-15T02:27:32.894Z,116.55
2023-04-15T02:30:02.983Z,118.82
2023-04-15T02:32:30.324Z,68.97
2023-04-15T02:34:57.300Z,31.92
2023-04-15T02:37:28.779Z,31.58
2023-04-15T02:40:00.723Z,75.72
2023-04-15T02:42:29.017Z,38.92
2023-04-15T02:44:56.569Z,18.15
2023-04-15T02:47:29.383Z,14.23
2023-04-15T02:49:58.670Z,22.65
2023-04-15T02:52:29.164Z,14.63
2023-04-15T02:55:00.712Z,18.20
2023-04-15T02:57:31.324Z,15.85
2023-04-15T03:00:06.497Z,14.82
2023-04-15T03:02:39.439Z,7.78
2023-04-15T03:05:07.524Z,12.50
2023-04-15T03:07:34.432Z,9.68
2023-04-15T03:10:02.988Z,10.65
2023-04-15T03:12:31.118Z,16.33
2023-04-15T03:14:58.820Z,14.07
2023-04-15T03:17:33.955Z,8.80
2023-04-15T03:20:03.969Z,8.75
2023-04-15T03:22:34.505Z,6.60
2023-04-15T03:25:02.754Z,12.23
2023-04-15T03:27:29.690Z,10.65
2023-04-15T03:30:00.313Z,12.95
2023-04-15T03:32:30.902Z,10.82
2023-04-15T03:34:58.071Z,11.38
2023-04-15T03:37:24.941Z,12.02
2023-04-15T03:39:51.904Z,8.35
2023-04-15T03:42:18.850Z,10.43
2023-04-15T03:44:45.972Z,8.82
2023-04-15T03:47:13.265Z,10.82
2023-04-15T03:49:40.239Z,12.98
2023-04-15T03:52:07.195Z,11.73
2023-04-15T03:54:34.145Z,14.32
2023-04-15T03:57:01.462Z,9.52
2023-04-15T03:59:28.478Z,7.65
2023-04-15T04:01:55.706Z,10.70
2023-04-15T04:04:22.901Z,10.55
2023-04-15T04:06:49.933Z,8.30
2023-04-15T04:09:17.017Z,16.17
2023-04-15T04:11:45.638Z,10.50
2023-04-15T04:14:12.538Z,6.90
2023-04-15T04:16:39.521Z,10.02
2023-04-15T04:19:06.452Z,11.95
2023-04-15T04:21:34.330Z,14.45
2023-04-15T04:24:01.446Z,13.18
2023-04-15T04:26:28.329Z,8.88
2023-04-15T04:28:55.480Z,13.50
2023-04-15T04:31:22.558Z,5.15
2023-04-15T04:33:49.540Z,5.88
2023-04-15T04:36:16.540Z,11.13
2023-04-15T04:38:43.481Z,9.30
2023-04-15T04:41:10.752Z,9.57
2023-04-15T04:43:37.637Z,5.60
2023-04-15T04:46:04.613Z,10.02
2023-04-15T04:48:31.713Z,5.68
2023-04-15T04:50:59.349Z,9.70
2023-04-15T04:53:26.520Z,6.13
2023-04-15T04:55:53.632Z,11.45
2023-04-15T04:58:20.792Z,5.38
2023-04-15T05:00:48.061Z,5.43
2023-04-15T05:03:15.247Z,7.22
2023-04-15T05:05:42.604Z,11.30
2023-04-15T05:08:09.595Z,9.60
2023-04-15T05:10:36.613Z,11.50
2023-04-15T05:13:03.646Z,6.65
2023-04-15T05:15:30.747Z,8.85
2023-04-15T05:17:57.802Z,10.05
2023-04-15T05:20:24.937Z,8.60
2023-04-15T05:22:51.937Z,6.63
2023-04-15T05:25:19.459Z,6.70
2023-04-15T05:27:46.514Z,17.92
2023-04-15T05:30:13.943Z,10.27
2023-04-15T05:32:41.016Z,6.97
2023-04-15T05:35:08.690Z,13.93
2023-04-15T05:37:35.662Z,8.05
2023-04-15T05:40:02.799Z,31.25
2023-04-15T05:42:29.816Z,8.77
2023-04-15T05:44:56.797Z,12.63
2023-04-15T05:47:23.963Z,7.63
2023-04-15T05:49:51.157Z,9.98
2023-04-15T05:52:18.217Z,12.20
2023-04-15T05:54:45.427Z,11.45
2023-04-15T05:57:12.908Z,18.33
2023-04-15T05:59:39.808Z,7.85
2023-04-15T06:02:07.688Z,16.95
2023-04-15T06:04:34.819Z,8.27
2023-04-15T06:07:01.908Z,10.93
2023-04-15T06:09:31.881Z,16.40
2023-04-15T06:11:59.326Z,11.82
2023-04-15T06:14:26.285Z,13.88
2023-04-15T06:16:53.227Z,13.13
2023-04-15T06:19:20.739Z,23.80
2023-04-15T06:21:47.736Z,11.18
2023-04-15T06:24:14.833Z,15.77
2023-04-15T06:26:41.771Z,9.05
2023-04-15T06:29:08.898Z,10.32
2023-04-15T06:31:36.044Z,12.20
2023-04-15T06:34:03.102Z,10.60
2023-04-15T06:36:30.129Z,9.00
2023-04-15T06:38:57.357Z,8.75
2023-04-15T06:41:24.746Z,5.75
2023-04-15T06:43:51.752Z,13.07
2023-04-15T06:46:19.058Z,5.88
2023-04-15T06:48:46.264Z,15.75
2023-04-15T06:51:13.415Z,7.45
2023-04-15T06:53:42.358Z,8.27
2023-04-15T06:56:09.835Z,5.57
2023-04-15T06:58:37.297Z,8.05
2023-04-15T07:01:04.618Z,10.18
2023-04-15T07:03:32.843Z,9.32
2023-04-15T07:06:00.123Z,5.43
2023-04-15T07:08:27.068Z,9.10
2023-04-15T07:10:54.563Z,5.13
2023-04-15T07:13:21.932Z,7.97
2023-04-15T07:15:48.873Z,7.97
2023-04-15T07:18:16.127Z,7.53
2023-04-15T07:20:43.957Z,7.70
2023-04-15T07:23:10.912Z,6.53
2023-04-15T07:25:37.962Z,7.20
2023-04-15T07:28:05.097Z,7.30
2023-04-15T07:30:32.094Z,10.02
2023-04-15T07:32:59.490Z,13.15
2023-04-15T07:35:26.709Z,7.70
2023-04-15T07:37:53.671Z,10.38
2023-04-15T07:40:20.887Z,8.55
2023-04-15T07:42:49.706Z,10.35
2023-04-15T07:45:17.031Z,6.57
2023-04-15T07:47:44.207Z,6.05
2023-04-15T07:50:14.855Z,12.38
2023-04-15T07:52:42.194Z,8.90
2023-04-15T07:55:09.839Z,14.18
2023-04-15T07:57:37.752Z,7.57
2023-04-15T08:00:09.005Z,6.18
2023-04-15T08:02:43.121Z,11.13
2023-04-15T08:05:11.444Z,7.00
2023-04-15T08:07:38.614Z,9.60
2023-04-15T08:10:06.701Z,15.07
2023-04-15T08:12:33.755Z,8.80
2023-04-15T08:15:02.159Z,8.35
2023-04-15T08:17:29.204Z,8.80
2023-04-15T08:19:56.222Z,10.27
2023-04-15T08:22:24.078Z,8.35
2023-04-15T08:24:51.535Z,8.13
2023-04-15T08:27:19.056Z,7.53
2023-04-15T08:29:46.057Z,6.97
2023-04-15T08:32:13.128Z,5.88
2023-04-15T08:34:40.325Z,5.90
2023-04-15T08:37:07.268Z,5.63
2023-04-15T08:39:37.155Z,6.40
2023-04-15T08:42:08.321Z,6.07
2023-04-15T08:44:39.169Z,7.28
2023-04-15T08:47:08.828Z,6.38
2023-04-15T08:49:43.167Z,8.18
2023-04-15T08:52:10.670Z,5.60
2023-04-15T08:54:38.917Z,6.50
2023-04-15T08:57:06.904Z,5.40
2023-04-15T08:59:33.797Z,6.60
2023-04-15T09:02:01.406Z,3.33
2023-04-15T09:04:29.064Z,5.63
2023-04-15T09:06:57.381Z,7.18
2023-04-15T09:09:24.417Z,4.22
2023-04-15T09:11:52.264Z,6.03
2023-04-15T09:14:19.215Z,9.55
2023-04-15T09:16:59.997Z,5.38
2023-04-15T09:19:27.280Z,4.43
2023-04-15T09:21:58.942Z,5.40
2023-04-15T09:24:33.912Z,5.85
2023-04-15T09:27:01.211Z,4.53
2023-04-15T09:29:28.159Z,4.85
2023-04-15T09:31:55.513Z,4.30
2023-04-15T09:34:36.317Z,8.65
2023-04-15T09:37:04.244Z,6.22
2023-04-15T09:39:52.696Z,9.07
2023-04-15T09:42:27.020Z,4.90
2023-04-15T09:44:54.204Z,7.70
2023-04-15T09:47:29.142Z,5.20
2023-04-15T09:49:57.896Z,8.20
2023-04-15T09:52:24.868Z,4.47
2023-04-15T09:54:55.528Z,5.97
2023-04-15T09:57:23.763Z,9.45
2023-04-15T09:59:53.558Z,3.80
2023-04-15T10:02:23.654Z,5.55
2023-04-15T10:04:52.773Z,4.70
2023-04-15T10:07:22.586Z,8.32
2023-04-15T10:09:50.147Z,5.00
2023-04-15T10:12:20.400Z,12.60
2023-04-15T10:15:00.184Z,4.00
2023-04-15T10:17:33.910Z,5.15
2023-04-15T10:20:05.493Z,6.63
2023-04-15T10:22:33.371Z,5.78
2023-04-15T10:25:01.290Z,7.13
2023-04-15T10:27:29.141Z,5.13
2023-04-15T10:29:57.335Z,5.43
2023-04-15T10:32:25.907Z,4.38
2023-04-15T10:34:54.724Z,4.93
2023-04-15T10:37:33.324Z,10.77
2023-04-15T10:40:00.237Z,8.95
2023-04-15T10:42:35.149Z,11.15
2023-04-15T10:45:02.133Z,11.77
2023-04-15T10:47:29.177Z,6.35
2023-04-15T10:50:01.251Z,9.95
2023-04-15T10:52:29.548Z,7.20
2023-04-15T10:55:16.065Z,6.50
2023-04-15T10:57:43.871Z,9.60
2023-04-15T11:00:11.635Z,8.65
2023-04-15T11:02:45.378Z,10.45
2023-04-15T11:05:16.845Z,9.23
2023-04-15T11:07:49.538Z,7.90
2023-04-15T11:10:26.013Z,7.55
2023-04-15T11:13:00.045Z,7.18
2023-04-15T11:15:45.915Z,8.60
2023-04-15T11:18:14.237Z,5.90
2023-04-15T11:20:45.657Z,8.82
2023-04-15T11:23:14.801Z,7.80
2023-04-15T11:25:44.092Z,8.48
2023-04-15T11:28:12.738Z,9.18
2023-04-15T11:30:40.963Z,7.60
2023-04-15T11:33:10.901Z,10.70
2023-04-15T11:35:38.561Z,6.35
2023-04-15T11:38:08.911Z,7.25
2023-04-15T11:40:36.316Z,6.55
2023-04-15T11:43:20.398Z,8.45
2023-04-15T11:45:57.578Z,6.55
2023-04-15T11:48:29.546Z,6.57
2023-04-15T11:51:04.938Z,9.15
2023-04-15T11:53:48.146Z,8.63
2023-04-15T11:56:23.116Z,8.35
2023-04-15T11:58:58.721Z,13.18
2023-04-15T12:01:52.575Z,10.32
2023-04-15T12:04:25.247Z,13.15
2023-04-15T12:06:53.227Z,9.02
2023-04-15T12:09:21.315Z,6.32
2023-04-15T12:11:53.990Z,10.93
2023-04-15T12:14:34.187Z,8.60
2023-04-15T12:17:06.289Z,12.25
2023-04-15T12:19:45.647Z,11.05
2023-04-15T12:22:15.997Z,8.70
2023-04-15T12:24:47.119Z,9.38
2023-04-15T12:27:16.112Z,6.75
2023-04-15T12:29:44.084Z,11.32
2023-04-15T12:32:12.909Z,7.25
2023-04-15T12:34:40.847Z,10.40
2023-04-15T12:37:10.974Z,16.40
2023-04-15T12:39:44.106Z,11.18
2023-04-15T12:42:12.275Z,11.52
2023-04-15T12:44:40.453Z,10.15
2023-04-15T12:47:08.835Z,7.75
2023-04-15T12:49:35.792Z,9.38
2023-04-15T12:52:03.927Z,10.15
2023-04-15T12:54:31.937Z,4.38
2023-04-15T12:57:00.042Z,12.25
2023-04-15T12:59:27.052Z,10.25
2023-04-15T13:01:54.973Z,11.45
2023-04-15T13:04:22.490Z,5.45
2023-04-15T13:06:49.981Z,15.32
2023-04-15T13:09:16.990Z,8.65
2023-04-15T13:11:44.233Z,7.75
2023-04-15T13:14:13.920Z,8.77
2023-04-15T13:16:47.662Z,9.50
2023-04-15T13:19:14.950Z,6.82
2023-04-15T13:21:41.829Z,9.05
2023-04-15T13:24:10.295Z,8.05
2023-04-15T13:26:37.978Z,10.77
2023-04-15T13:29:05.025Z,7.22
2023-04-15T13:31:32.222Z,10.13
2023-04-15T13:33:59.304Z,8.05
2023-04-15T13:36:27.379Z,8.95
2023-04-15T13:38:54.657Z,9.18
2023-04-15T13:41:22.063Z,7.95
2023-04-15T13:43:49.019Z,12.88
2023-04-15T13:46:16.185Z,12.32
2023-04-15T13:48:43.321Z,9.30
2023-04-15T13:51:10.496Z,11.43
2023-04-15T13:53:38.428Z,7.32
2023-04-15T13:56:10.157Z,13.57
2023-04-15T13:58:37.869Z,7.25
2023-04-15T14:01:06.935Z,9.10
2023-04-15T14:03:38.314Z,10.40
2023-04-15T14:06:06.514Z,14.85
2023-04-15T14:08:33.861Z,10.98
2023-04-15T14:11:01.055Z,16.92
2023-04-15T14:13:28.077Z,11.57
2023-04-15T14:15:55.561Z,8.85
2023-04-15T14:18:22.655Z,12.55
2023-04-15T14:20:49.928Z,12.98
2023-04-15T14:23:16.925Z,13.68
2023-04-15T14:25:45.518Z,11.30
2023-04-15T14:28:13.833Z,20.77
2023-04-15T14:30:40.964Z,19.33
2023-04-15T14:33:08.006Z,17.60
2023-04-15T14:35:37.083Z,19.13
2023-04-15T14:38:04.204Z,15.55
2023-04-15T14:40:31.355Z,17.15
2023-04-15T14:42:58.305Z,17.98
2023-04-15T14:45:25.553Z,23.08
2023-04-15T14:47:53.408Z,16.38
2023-04-15T14:50:20.491Z,18.38
2023-04-15T14:52:47.619Z,15.77
2023-04-15T14:55:14.639Z,17.45
2023-04-15T14:57:42.880Z,19.98
2023-04-15T15:00:13.769Z,21.08
2023-04-15T15:02:43.750Z,22.77
2023-04-15T15:05:12.172Z,17.13
2023-04-15T15:07:41.121Z,18.05
2023-04-15T15:10:08.559Z,16.30
2023-04-15T15:12:35.891Z,13.90
2023-04-15T15:15:12.237Z,10.85
2023-04-15T15:17:39.818Z,15.18
2023-04-15T15:20:09.642Z,16.02
2023-04-15T15:22:36.606Z,18.63
2023-04-15T15:25:03.747Z,19.63
2023-04-15T15:27:30.753Z,7.93
2023-04-15T15:29:58.639Z,10.23
2023-04-15T15:32:25.921Z,21.77
2023-04-15T15:34:53.443Z,17.85
2023-04-15T15:37:20.449Z,13.13
2023-04-15T15:39:48.279Z,3.95
2023-04-15T15:42:15.516Z,7.40
2023-04-15T15:44:42.519Z,8.10
2023-04-15T15:47:09.576Z,10.90
2023-04-15T15:49:36.645Z,15.23
2023-04-15T15:52:03.611Z,18.40
2023-04-15T15:54:30.621Z,16.13
2023-04-15T15:56:57.684Z,10.15
2023-04-15T15:59:25.662Z,19.48
2023-04-15T16:01:52.871Z,13.32
2023-04-15T16:04:20.188Z,13.93
2023-04-15T16:06:47.494Z,12.63
2023-04-15T16:09:14.943Z,11.94
2023-04-15T16:11:41.959Z,10.55
2023-04-15T16:14:08.919Z,13.75
2023-04-15T16:16:36.039Z,17.00
2023-04-15T16:19:03.156Z,10.23
2023-04-15T16:21:31.285Z,18.52
2023-04-15T16:23:58.288Z,8.85
2023-04-15T16:26:25.262Z,17.88
2023-04-15T16:28:52.173Z,11.38
2023-04-15T16:31:19.070Z,12.27
2023-04-15T16:33:46.263Z,12.93
2023-04-15T16:36:13.247Z,16.73
2023-04-15T16:38:40.202Z,13.23
2023-04-15T16:41:07.275Z,15.82
2023-04-15T16:43:34.166Z,11.20
2023-04-15T16:46:01.354Z,23.38
2023-04-15T16:48:28.423Z,13.38
2023-04-15T16:50:55.432Z,16.35
2023-04-15T16:53:22.383Z,15.45
2023-04-15T16:55:49.359Z,15.50
2023-04-15T16:58:16.434Z,11.02
2023-04-15T17:00:43.486Z,11.80
2023-04-15T17:03:10.840Z,15.18
2023-04-15T17:05:38.258Z,19.65
2023-04-15T17:08:05.893Z,10.38
2023-04-15T17:10:32.855Z,11.73
2023-04-15T17:13:00.138Z,10.95
2023-04-15T17:15:27.301Z,11.65
2023-04-15T17:17:54.683Z,12.73
2023-04-15T17:20:21.771Z,18.70
2023-04-15T17:22:49.223Z,11.27
2023-04-15T17:25:16.199Z,10.45
2023-04-15T17:27:43.160Z,13.75
2023-04-15T17:30:10.861Z,13.18
2023-04-15T17:32:39.505Z,12.82
2023-04-15T17:35:07.395Z,11.38
2023-04-15T17:37:35.362Z,11.82
2023-04-15T17:40:02.467Z,15.27
2023-04-15T17:42:29.447Z,19.60
2023-04-15T17:44:56.433Z,17.63
2023-04-15T17:47:23.425Z,20.73
2023-04-15T17:49:50.576Z,14.18
2023-04-15T17:52:17.770Z,11.60
2023-04-15T17:54:46.208Z,14.40
2023-04-15T17:57:13.186Z,11.35
2023-04-15T17:59:44.108Z,17.75
2023-04-15T18:02:11.719Z,12.88
2023-04-15T18:04:39.624Z,9.55
2023-04-15T18:07:06.784Z,15.10
2023-04-15T18:09:33.745Z,12.82
2023-04-15T18:12:02.150Z,10.15
2023-04-15T18:14:34.583Z,8.40
2023-04-15T18:17:05.462Z,12.77
2023-04-15T18:19:32.727Z,12.48
2023-04-15T18:22:03.357Z,18.17
2023-04-15T18:24:30.473Z,11.63
2023-04-15T18:26:57.600Z,9.07
2023-04-15T18:29:25.457Z,13.75
2023-04-15T18:31:53.090Z,15.88
2023-04-15T18:34:20.292Z,14.70
2023-04-15T18:36:47.233Z,12.43
2023-04-15T18:39:14.541Z,10.32
2023-04-15T18:41:41.433Z,15.50
2023-04-15T18:44:08.488Z,17.23
2023-04-15T18:46:35.541Z,15.35
2023-04-15T18:49:02.645Z,12.13
2023-04-15T18:51:30.164Z,9.60
2023-04-15T18:53:57.188Z,11.45
2023-04-15T18:56:24.262Z,7.68
2023-04-15T18:59:08.948Z,10.32
2023-04-15T19:01:38.230Z,9.43
2023-04-15T19:04:05.424Z,17.48
2023-04-15T19:06:32.478Z,10.90
2023-04-15T19:08:59.514Z,18.80
2023-04-15T19:11:26.540Z,10.82
2023-04-15T19:13:53.724Z,11.10
2023-04-15T19:16:21.144Z,11.70
2023-04-15T19:18:48.181Z,11.73
2023-04-15T19:21:15.632Z,15.38
2023-04-15T19:23:43.348Z,14.60
2023-04-15T19:26:11.694Z,12.38
2023-04-15T19:28:38.689Z,18.65
2023-04-15T19:31:06.848Z,13.73
2023-04-15T19:33:33.918Z,12.27
2023-04-15T19:36:05.962Z,10.45
2023-04-15T19:38:37.591Z,17.42
2023-04-15T19:41:04.623Z,11.13
2023-04-15T19:43:32.964Z,14.38
2023-04-15T19:46:00.245Z,18.30
2023-04-15T19:48:27.354Z,12.40
2023-04-15T19:50:54.320Z,15.05
2023-04-15T19:53:21.233Z,13.98
2023-04-15T19:55:49.105Z,13.40
2023-04-15T19:58:16.261Z,14.50
2023-04-15T20:00:43.328Z,14.80
2023-04-15T20:03:10.859Z,9.20
2023-04-15T20:05:41.078Z,10.65
2023-04-15T20:08:08.343Z,10.57
2023-04-15T20:10:36.952Z,12.82
2023-04-15T20:13:04.213Z,14.40
2023-04-15T20:15:31.497Z,14.15
2023-04-15T20:17:58.528Z,11.75
2023-04-15T20:20:25.682Z,13.32
2023-04-15T20:22:53.247Z,10.48
2023-04-15T20:25:20.606Z,9.63
2023-04-15T20:27:47.530Z,16.05
2023-04-15T20:30:14.606Z,11.80
2023-04-15T20:32:41.944Z,23.00
2023-04-15T20:35:09.202Z,13.63
2023-04-15T20:37:40.708Z,10.98
2023-04-15T20:40:08.495Z,20.30
2023-04-15T20:42:35.563Z,12.63
2023-04-15T20:45:02.895Z,15.60
2023-04-15T20:47:30.375Z,11.43
2023-04-15T20:49:57.445Z,12.32
2023-04-15T20:52:24.407Z,12.20
2023-04-15T20:54:51.718Z,10.88
2023-04-15T20:57:20.356Z,24.45
2023-04-15T20:59:47.669Z,22.25
2023-04-15T21:02:14.760Z,11.73
2023-04-15T21:04:41.931Z,11.43
2023-04-15T21:07:10.211Z,12.40
2023-04-15T21:09:38.702Z,9.60
2023-04-15T21:12:05.639Z,14.85
2023-04-15T21:14:32.665Z,13.82
2023-04-15T21:16:59.717Z,15.57
2023-04-15T21:19:26.938Z,14.32
2023-04-15T21:21:53.944Z,18.55
2023-04-15T21:24:20.961Z,18.88
2023-04-15T21:26:47.894Z,17.00
2023-04-15T21:29:14.966Z,14.73
2023-04-15T21:31:42.182Z,22.95
2023-04-15T21:34:14.904Z,16.67
2023-04-15T21:36:44.719Z,18.35
2023-04-15T21:39:11.607Z,11.75
2023-04-15T21:41:38.573Z,20.83
2023-04-15T21:44:05.809Z,15.20
2023-04-15T21:46:35.517Z,25.10
2023-04-15T21:49:03.700Z,12.77
2023-04-15T21:51:31.757Z,13.60
2023-04-15T21:53:59.375Z,12.63
2023-04-15T21:56:26.650Z,14.32
2023-04-15T21:58:59.054Z,7.80
2023-04-15T22:01:27.104Z,15.38
2023-04-15T22:03:54.398Z,22.00
2023-04-15T22:06:21.875Z,11.23
2023-04-15T22:08:57.358Z,8.27
2023-04-15T22:11:28.639Z,14.95
2023-04-15T22:13:57.476Z,8.43
2023-04-15T22:16:27.978Z,13.63
2023-04-15T22:18:55.883Z,17.48
2023-04-15T22:21:23.427Z,12.65
2023-04-15T22:23:51.597Z,11.27
2023-04-15T22:26:18.852Z,15.20
2023-04-15T22:28:45.958Z,20.20
2023-04-15T22:31:14.354Z,14.25
2023-04-15T22:33:41.501Z,13.07
2023-04-15T22:36:08.630Z,8.77
2023-04-15T22:38:35.879Z,13.75
2023-04-15T22:41:02.798Z,13.27
2023-04-15T22:43:29.846Z,18.95
2023-04-15T22:45:56.917Z,14.10
2023-04-15T22:48:23.999Z,17.17
2023-04-15T22:50:51.045Z,16.73
2023-04-15T22:53:20.779Z,12.25
2023-04-15T22:55:48.859Z,13.55
2023-04-15T22:58:17.283Z,22.10
2023-04-15T23:00:44.980Z,14.25
2023-04-15T23:03:12.188Z,14.68
2023-04-15T23:05:41.382Z,18.80
2023-04-15T23:08:11.296Z,22.48
2023-04-15T23:10:40.188Z,15.20
2023-04-15T23:13:07.174Z,13.65
2023-04-15T23:15:34.076Z,11.50
2023-04-15T23:18:02.287Z,11.90
2023-04-15T23:20:29.312Z,10.85
2023-04-15T23:22:56.469Z,156.48
2023-04-15T23:25:23.536Z,176.90
2023-04-15T23:27:50.584Z,80.50
2023-04-15T23:30:17.466Z,40.45
2023-04-15T23:32:44.483Z,34.08
2023-04-15T23:35:11.420Z,21.67
2023-04-15T23:37:38.447Z,22.08
2023-04-15T23:40:06.043Z,21.38
2023-04-15T23:42:33.216Z,18.65
2023-04-15T23:45:00.165Z,13.98
2023-04-15T23:47:27.415Z,15.57
2023-04-15T23:49:54.417Z,12.75
2023-04-15T23:52:21.410Z,12.23
2023-04-15T23:54:48.433Z,10.93
2023-04-15T23:57:15.689Z,15.82
2023-04-15T23:59:45.637Z,14.07
